sensor_id;sensor_type;location;lat;lon;timestamp;P1;durP1;ratioP1;P2;durP2;ratioP2
44476;SDS011;30180;44.788;10.366;2022-12-10T00:01:38;4.28;;;2.72;;
44476;SDS011;30180;44.788;10.366;2022-12-10T00:04:07;4.85;;;3.00;;
44476;SDS011;30180;44.788;10.366;2022-12-10T00:06:36;4.07;;;2.72;;
44476;SDS011;30180;44.788;10.366;2022-12-10T00:09:06;4.90;;;2.78;;
44476;SDS011;30180;44.788;10.366;2022-12-10T00:11:38;4.18;;;2.30;;
44476;SDS011;30180;44.788;10.366;2022-12-10T00:14:08;5.18;;;2.92;;
44476;SDS011;30180;44.788;10.366;2022-12-10T00:16:38;5.40;;;2.70;;
44476;SDS011;30180;44.788;10.366;2022-12-10T00:19:07;4.80;;;2.80;;
44476;SDS011;30180;44.788;10.366;2022-12-10T00:21:35;4.82;;;2.88;;
44476;SDS011;30180;44.788;10.366;2022-12-10T00:24:04;5.13;;;2.80;;
44476;SDS011;30180;44.788;10.366;2022-12-10T00:26:34;5.85;;;3.03;;
44476;SDS011;30180;44.788;10.366;2022-12-10T00:29:05;5.93;;;3.08;;
44476;SDS011;30180;44.788;10.366;2022-12-10T00:31:37;5.20;;;3.10;;
44476;SDS011;30180;44.788;10.366;2022-12-10T00:34:07;6.22;;;3.20;;
44476;SDS011;30180;44.788;10.366;2022-12-10T00:36:37;4.68;;;2.85;;
44476;SDS011;30180;44.788;10.366;2022-12-10T00:39:08;4.00;;;2.55;;
44476;SDS011;30180;44.788;10.366;2022-12-10T00:41:38;5.53;;;2.63;;
44476;SDS011;30180;44.788;10.366;2022-12-10T00:44:08;4.28;;;2.65;;
44476;SDS011;30180;44.788;10.366;2022-12-10T00:46:36;5.60;;;3.30;;
44476;SDS011;30180;44.788;10.366;2022-12-10T00:49:04;4.72;;;2.70;;
44476;SDS011;30180;44.788;10.366;2022-12-10T00:51:33;4.97;;;2.80;;
44476;SDS011;30180;44.788;10.366;2022-12-10T00:54:01;4.28;;;2.45;;
44476;SDS011;30180;44.788;10.366;2022-12-10T00:56:30;5.32;;;3.13;;
44476;SDS011;30180;44.788;10.366;2022-12-10T00:59:00;4.10;;;2.77;;
44476;SDS011;30180;44.788;10.366;2022-12-10T01:01:31;3.40;;;2.45;;
44476;SDS011;30180;44.788;10.366;2022-12-10T01:04:01;5.97;;;3.38;;
44476;SDS011;30180;44.788;10.366;2022-12-10T01:06:32;5.07;;;2.78;;
44476;SDS011;30180;44.788;10.366;2022-12-10T01:09:03;4.38;;;2.78;;
44476;SDS011;30180;44.788;10.366;2022-12-10T01:11:35;5.18;;;2.83;;
44476;SDS011;30180;44.788;10.366;2022-12-10T01:14:05;4.30;;;2.65;;
44476;SDS011;30180;44.788;10.366;2022-12-10T01:16:36;3.88;;;2.45;;
44476;SDS011;30180;44.788;10.366;2022-12-10T01:19:05;3.88;;;2.60;;
44476;SDS011;30180;44.788;10.366;2022-12-10T01:21:34;4.57;;;2.80;;
44476;SDS011;30180;44.788;10.366;2022-12-10T01:24:03;4.55;;;2.67;;
44476;SDS011;30180;44.788;10.366;2022-12-10T01:26:32;4.38;;;2.78;;
44476;SDS011;30180;44.788;10.366;2022-12-10T01:29:02;4.55;;;2.50;;
44476;SDS011;30180;44.788;10.366;2022-12-10T01:31:32;5.30;;;2.95;;
44476;SDS011;30180;44.788;10.366;2022-12-10T01:34:03;5.13;;;2.95;;
44476;SDS011;30180;44.788;10.366;2022-12-10T01:39:04;4.55;;;2.70;;
44476;SDS011;30180;44.788;10.366;2022-12-10T01:41:34;3.80;;;2.50;;
44476;SDS011;30180;44.788;10.366;2022-12-10T01:44:05;4.47;;;2.70;;
44476;SDS011;30180;44.788;10.366;2022-12-10T01:47:12;4.95;;;2.95;;
44476;SDS011;30180;44.788;10.366;2022-12-10T01:49:41;4.88;;;2.88;;
44476;SDS011;30180;44.788;10.366;2022-12-10T01:52:10;4.85;;;3.00;;
44476;SDS011;30180;44.788;10.366;2022-12-10T01:54:40;4.82;;;2.88;;
44476;SDS011;30180;44.788;10.366;2022-12-10T01:57:11;5.45;;;3.13;;
44476;SDS011;30180;44.788;10.366;2022-12-10T01:59:41;4.15;;;2.80;;
44476;SDS011;30180;44.788;10.366;2022-12-10T02:02:14;3.92;;;2.65;;
44476;SDS011;30180;44.788;10.366;2022-12-10T02:04:51;4.45;;;2.70;;
44476;SDS011;30180;44.788;10.366;2022-12-10T02:07:32;4.30;;;2.75;;
44476;SDS011;30180;44.788;10.366;2022-12-10T02:10:09;3.60;;;2.53;;
44476;SDS011;30180;44.788;10.366;2022-12-10T02:12:46;4.32;;;2.70;;
44476;SDS011;30180;44.788;10.366;2022-12-10T02:15:17;4.80;;;2.85;;
44476;SDS011;30180;44.788;10.366;2022-12-10T02:17:51;4.18;;;2.70;;
44476;SDS011;30180;44.788;10.366;2022-12-10T02:20:22;5.13;;;2.72;;
44476;SDS011;30180;44.788;10.366;2022-12-10T02:22:57;4.90;;;2.78;;
44476;SDS011;30180;44.788;10.366;2022-12-10T02:25:30;3.53;;;2.20;;
44476;SDS011;30180;44.788;10.366;2022-12-10T02:28:05;4.55;;;2.70;;
44476;SDS011;30180;44.788;10.366;2022-12-10T02:30:42;5.18;;;3.00;;
44476;SDS011;30180;44.788;10.366;2022-12-10T02:33:12;4.38;;;2.63;;
44476;SDS011;30180;44.788;10.366;2022-12-10T02:35:44;4.38;;;2.65;;
44476;SDS011;30180;44.788;10.366;2022-12-10T02:38:16;4.35;;;2.50;;
44476;SDS011;30180;44.788;10.366;2022-12-10T02:40:54;3.88;;;2.70;;
44476;SDS011;30180;44.788;10.366;2022-12-10T02:43:27;5.47;;;2.88;;
44476;SDS011;30180;44.788;10.366;2022-12-10T02:45:58;4.13;;;2.40;;
44476;SDS011;30180;44.788;10.366;2022-12-10T02:48:30;4.72;;;2.90;;
44476;SDS011;30180;44.788;10.366;2022-12-10T02:50:59;3.60;;;2.60;;
44476;SDS011;30180;44.788;10.366;2022-12-10T02:53:27;4.10;;;2.40;;
44476;SDS011;30180;44.788;10.366;2022-12-10T02:55:58;4.32;;;2.75;;
44476;SDS011;30180;44.788;10.366;2022-12-10T02:58:38;3.40;;;2.33;;
44476;SDS011;30180;44.788;10.366;2022-12-10T03:01:17;3.78;;;2.40;;
44476;SDS011;30180;44.788;10.366;2022-12-10T03:03:52;3.78;;;2.45;;
44476;SDS011;30180;44.788;10.366;2022-12-10T03:06:26;4.20;;;2.45;;
44476;SDS011;30180;44.788;10.366;2022-12-10T03:09:01;4.05;;;2.55;;
44476;SDS011;30180;44.788;10.366;2022-12-10T03:11:31;4.82;;;2.80;;
44476;SDS011;30180;44.788;10.366;2022-12-10T03:14:02;4.00;;;2.33;;
44476;SDS011;30180;44.788;10.366;2022-12-10T03:16:36;3.97;;;2.20;;
44476;SDS011;30180;44.788;10.366;2022-12-10T03:19:10;3.90;;;2.50;;
44476;SDS011;30180;44.788;10.366;2022-12-10T03:21:40;4.47;;;2.40;;
44476;SDS011;30180;44.788;10.366;2022-12-10T03:24:09;5.18;;;2.92;;
44476;SDS011;30180;44.788;10.366;2022-12-10T03:26:38;3.92;;;2.20;;
44476;SDS011;30180;44.788;10.366;2022-12-10T03:29:09;4.47;;;2.58;;
44476;SDS011;30180;44.788;10.366;2022-12-10T03:31:43;3.42;;;2.00;;
44476;SDS011;30180;44.788;10.366;2022-12-10T03:34:12;4.70;;;2.80;;
44476;SDS011;30180;44.788;10.366;2022-12-10T03:36:41;3.70;;;2.42;;
44476;SDS011;30180;44.788;10.366;2022-12-10T03:39:10;4.18;;;2.58;;
44476;SDS011;30180;44.788;10.366;2022-12-10T03:41:40;3.60;;;2.17;;
44476;SDS011;30180;44.788;10.366;2022-12-10T03:44:08;4.68;;;2.60;;
44476;SDS011;30180;44.788;10.366;2022-12-10T03:46:36;3.92;;;2.35;;
44476;SDS011;30180;44.788;10.366;2022-12-10T03:49:06;4.03;;;2.15;;
44476;SDS011;30180;44.788;10.366;2022-12-10T03:51:35;4.07;;;2.42;;
44476;SDS011;30180;44.788;10.366;2022-12-10T03:54:03;3.67;;;2.50;;
44476;SDS011;30180;44.788;10.366;2022-12-10T03:56:31;3.67;;;2.15;;
44476;SDS011;30180;44.788;10.366;2022-12-10T03:59:00;5.65;;;2.45;;
44476;SDS011;30180;44.788;10.366;2022-12-10T04:01:28;3.78;;;2.30;;
44476;SDS011;30180;44.788;10.366;2022-12-10T04:03:56;4.13;;;2.53;;
44476;SDS011;30180;44.788;10.366;2022-12-10T04:06:26;3.78;;;2.38;;
44476;SDS011;30180;44.788;10.366;2022-12-10T04:08:54;3.42;;;2.25;;
44476;SDS011;30180;44.788;10.366;2022-12-10T04:11:24;3.67;;;2.30;;
44476;SDS011;30180;44.788;10.366;2022-12-10T04:13:53;3.55;;;2.30;;
44476;SDS011;30180;44.788;10.366;2022-12-10T04:16:38;3.60;;;2.20;;
44476;SDS011;30180;44.788;10.366;2022-12-10T04:19:08;4.25;;;2.45;;
44476;SDS011;30180;44.788;10.366;2022-12-10T04:21:39;3.80;;;2.43;;
44476;SDS011;30180;44.788;10.366;2022-12-10T04:24:27;3.50;;;2.28;;
44476;SDS011;30180;44.788;10.366;2022-12-10T04:27:16;5.40;;;2.60;;
44476;SDS011;30180;44.788;10.366;2022-12-10T04:29:46;4.18;;;2.30;;
44476;SDS011;30180;44.788;10.366;2022-12-10T04:32:14;3.78;;;2.33;;
44476;SDS011;30180;44.788;10.366;2022-12-10T04:34:43;3.83;;;2.33;;
44476;SDS011;30180;44.788;10.366;2022-12-10T04:37:13;4.10;;;2.65;;
44476;SDS011;30180;44.788;10.366;2022-12-10T04:39:41;4.03;;;2.40;;
44476;SDS011;30180;44.788;10.366;2022-12-10T04:42:10;3.83;;;2.30;;
44476;SDS011;30180;44.788;10.366;2022-12-10T04:44:38;4.45;;;2.42;;
44476;SDS011;30180;44.788;10.366;2022-12-10T04:47:07;3.72;;;2.35;;
44476;SDS011;30180;44.788;10.366;2022-12-10T04:49:36;4.28;;;2.50;;
44476;SDS011;30180;44.788;10.366;2022-12-10T04:52:05;2.78;;;1.88;;
44476;SDS011;30180;44.788;10.366;2022-12-10T04:54:36;4.00;;;2.30;;
44476;SDS011;30180;44.788;10.366;2022-12-10T04:57:05;4.13;;;2.20;;
44476;SDS011;30180;44.788;10.366;2022-12-10T04:59:33;3.90;;;2.20;;
44476;SDS011;30180;44.788;10.366;2022-12-10T05:02:03;3.17;;;2.20;;
44476;SDS011;30180;44.788;10.366;2022-12-10T05:04:31;3.25;;;2.10;;
44476;SDS011;30180;44.788;10.366;2022-12-10T05:07:00;3.83;;;2.08;;
44476;SDS011;30180;44.788;10.366;2022-12-10T05:09:28;3.80;;;2.20;;
44476;SDS011;30180;44.788;10.366;2022-12-10T05:11:58;2.38;;;1.70;;
44476;SDS011;30180;44.788;10.366;2022-12-10T05:14:26;3.58;;;2.10;;
44476;SDS011;30180;44.788;10.366;2022-12-10T05:16:54;4.82;;;2.25;;
44476;SDS011;30180;44.788;10.366;2022-12-10T05:19:22;3.53;;;1.92;;
44476;SDS011;30180;44.788;10.366;2022-12-10T05:21:53;3.33;;;1.95;;
44476;SDS011;30180;44.788;10.366;2022-12-10T05:24:39;3.65;;;2.20;;
44476;SDS011;30180;44.788;10.366;2022-12-10T05:27:08;4.10;;;2.30;;
44476;SDS011;30180;44.788;10.366;2022-12-10T05:29:37;2.97;;;2.17;;
44476;SDS011;30180;44.788;10.366;2022-12-10T05:32:05;3.92;;;2.17;;
44476;SDS011;30180;44.788;10.366;2022-12-10T05:34:33;3.72;;;2.05;;
44476;SDS011;30180;44.788;10.366;2022-12-10T05:37:01;3.33;;;2.00;;
44476;SDS011;30180;44.788;10.366;2022-12-10T05:39:30;3.47;;;2.30;;
44476;SDS011;30180;44.788;10.366;2022-12-10T05:41:58;3.92;;;2.33;;
44476;SDS011;30180;44.788;10.366;2022-12-10T05:44:27;3.50;;;2.10;;
44476;SDS011;30180;44.788;10.366;2022-12-10T05:46:56;3.03;;;2.00;;
44476;SDS011;30180;44.788;10.366;2022-12-10T05:49:24;3.92;;;2.22;;
44476;SDS011;30180;44.788;10.366;2022-12-10T05:51:53;3.40;;;2.15;;
44476;SDS011;30180;44.788;10.366;2022-12-10T05:54:22;3.00;;;2.07;;
44476;SDS011;30180;44.788;10.366;2022-12-10T05:56:50;2.50;;;1.83;;
44476;SDS011;30180;44.788;10.366;2022-12-10T05:59:19;3.15;;;2.17;;
44476;SDS011;30180;44.788;10.366;2022-12-10T06:01:49;3.63;;;2.17;;
44476;SDS011;30180;44.788;10.366;2022-12-10T06:04:17;3.47;;;2.30;;
44476;SDS011;30180;44.788;10.366;2022-12-10T06:06:46;2.95;;;1.90;;
44476;SDS011;30180;44.788;10.366;2022-12-10T06:09:16;3.47;;;2.00;;
44476;SDS011;30180;44.788;10.366;2022-12-10T06:11:44;3.40;;;1.88;;
44476;SDS011;30180;44.788;10.366;2022-12-10T06:14:12;3.38;;;2.00;;
44476;SDS011;30180;44.788;10.366;2022-12-10T06:16:40;3.65;;;2.13;;
44476;SDS011;30180;44.788;10.366;2022-12-10T06:19:10;3.33;;;1.88;;
44476;SDS011;30180;44.788;10.366;2022-12-10T06:21:38;3.88;;;2.00;;
44476;SDS011;30180;44.788;10.366;2022-12-10T06:24:06;3.95;;;2.35;;
44476;SDS011;30180;44.788;10.366;2022-12-10T06:26:35;3.75;;;2.03;;
44476;SDS011;30180;44.788;10.366;2022-12-10T06:29:03;4.28;;;2.10;;
44476;SDS011;30180;44.788;10.366;2022-12-10T06:31:32;3.05;;;1.83;;
44476;SDS011;30180;44.788;10.366;2022-12-10T06:34:00;3.78;;;2.28;;
44476;SDS011;30180;44.788;10.366;2022-12-10T06:36:30;3.30;;;1.90;;
44476;SDS011;30180;44.788;10.366;2022-12-10T06:38:58;2.67;;;1.63;;
44476;SDS011;30180;44.788;10.366;2022-12-10T06:41:27;2.50;;;1.73;;
44476;SDS011;30180;44.788;10.366;2022-12-10T06:43:55;3.47;;;2.10;;
44476;SDS011;30180;44.788;10.366;2022-12-10T06:46:24;3.13;;;1.83;;
44476;SDS011;30180;44.788;10.366;2022-12-10T06:48:55;3.23;;;1.90;;
44476;SDS011;30180;44.788;10.366;2022-12-10T06:51:23;2.63;;;1.70;;
44476;SDS011;30180;44.788;10.366;2022-12-10T06:53:53;3.25;;;1.75;;
44476;SDS011;30180;44.788;10.366;2022-12-10T06:56:21;3.30;;;1.70;;
44476;SDS011;30180;44.788;10.366;2022-12-10T06:58:49;2.83;;;1.92;;
44476;SDS011;30180;44.788;10.366;2022-12-10T07:01:18;2.38;;;1.70;;
44476;SDS011;30180;44.788;10.366;2022-12-10T07:03:48;3.03;;;1.92;;
44476;SDS011;30180;44.788;10.366;2022-12-10T07:06:17;2.67;;;1.90;;
44476;SDS011;30180;44.788;10.366;2022-12-10T07:08:46;3.08;;;1.83;;
44476;SDS011;30180;44.788;10.366;2022-12-10T07:11:17;3.78;;;2.10;;
44476;SDS011;30180;44.788;10.366;2022-12-10T07:13:47;3.20;;;1.85;;
44476;SDS011;30180;44.788;10.366;2022-12-10T07:16:17;2.75;;;1.70;;
44476;SDS011;30180;44.788;10.366;2022-12-10T07:18:46;3.10;;;1.63;;
44476;SDS011;30180;44.788;10.366;2022-12-10T07:21:18;3.35;;;1.95;;
44476;SDS011;30180;44.788;10.366;2022-12-10T07:23:48;3.47;;;2.03;;
44476;SDS011;30180;44.788;10.366;2022-12-10T07:26:18;2.75;;;1.75;;
44476;SDS011;30180;44.788;10.366;2022-12-10T07:28:46;2.67;;;1.83;;
44476;SDS011;30180;44.788;10.366;2022-12-10T07:31:19;2.75;;;1.80;;
44476;SDS011;30180;44.788;10.366;2022-12-10T07:33:48;3.25;;;1.88;;
44476;SDS011;30180;44.788;10.366;2022-12-10T07:36:17;2.70;;;1.75;;
44476;SDS011;30180;44.788;10.366;2022-12-10T07:38:46;3.45;;;1.98;;
44476;SDS011;30180;44.788;10.366;2022-12-10T07:41:15;3.53;;;1.95;;
44476;SDS011;30180;44.788;10.366;2022-12-10T07:43:45;3.30;;;1.85;;
44476;SDS011;30180;44.788;10.366;2022-12-10T07:46:15;3.00;;;1.90;;
44476;SDS011;30180;44.788;10.366;2022-12-10T07:48:45;3.08;;;1.80;;
44476;SDS011;30180;44.788;10.366;2022-12-10T07:51:14;3.25;;;1.80;;
44476;SDS011;30180;44.788;10.366;2022-12-10T07:53:43;3.30;;;1.88;;
44476;SDS011;30180;44.788;10.366;2022-12-10T07:56:12;2.70;;;1.77;;
44476;SDS011;30180;44.788;10.366;2022-12-10T07:58:41;3.50;;;2.00;;
44476;SDS011;30180;44.788;10.366;2022-12-10T08:01:11;2.70;;;1.70;;
44476;SDS011;30180;44.788;10.366;2022-12-10T08:06:09;2.85;;;1.65;;
44476;SDS011;30180;44.788;10.366;2022-12-10T08:08:40;2.97;;;1.83;;
44476;SDS011;30180;44.788;10.366;2022-12-10T08:11:09;2.80;;;1.70;;
44476;SDS011;30180;44.788;10.366;2022-12-10T08:13:37;2.72;;;1.65;;
44476;SDS011;30180;44.788;10.366;2022-12-10T08:16:07;2.30;;;1.60;;
44476;SDS011;30180;44.788;10.366;2022-12-10T08:18:38;3.00;;;1.95;;
44476;SDS011;30180;44.788;10.366;2022-12-10T08:21:08;2.20;;;1.70;;
44476;SDS011;30180;44.788;10.366;2022-12-10T08:23:37;3.03;;;1.90;;
44476;SDS011;30180;44.788;10.366;2022-12-10T08:26:06;2.53;;;1.70;;
44476;SDS011;30180;44.788;10.366;2022-12-10T08:28:36;4.72;;;2.28;;
44476;SDS011;30180;44.788;10.366;2022-12-10T08:31:06;5.38;;;2.13;;
44476;SDS011;30180;44.788;10.366;2022-12-10T08:33:37;7.70;;;2.40;;
44476;SDS011;30180;44.788;10.366;2022-12-10T08:36:07;6.57;;;2.40;;
44476;SDS011;30180;44.788;10.366;2022-12-10T08:38:37;5.85;;;2.55;;
44476;SDS011;30180;44.788;10.366;2022-12-10T08:41:06;5.18;;;2.60;;
44476;SDS011;30180;44.788;10.366;2022-12-10T08:43:35;5.28;;;2.63;;
44476;SDS011;30180;44.788;10.366;2022-12-10T08:46:03;7.53;;;3.00;;
44476;SDS011;30180;44.788;10.366;2022-12-10T08:48:32;4.00;;;2.45;;
44476;SDS011;30180;44.788;10.366;2022-12-10T08:51:03;5.05;;;2.45;;
44476;SDS011;30180;44.788;10.366;2022-12-10T08:53:32;5.95;;;2.50;;
44476;SDS011;30180;44.788;10.366;2022-12-10T08:56:01;4.68;;;2.58;;
44476;SDS011;30180;44.788;10.366;2022-12-10T08:58:30;5.70;;;2.70;;
44476;SDS011;30180;44.788;10.366;2022-12-10T09:00:58;5.07;;;2.50;;
44476;SDS011;30180;44.788;10.366;2022-12-10T09:03:27;8.25;;;2.85;;
44476;SDS011;30180;44.788;10.366;2022-12-10T09:05:56;5.50;;;2.72;;
44476;SDS011;30180;44.788;10.366;2022-12-10T09:08:30;4.47;;;2.55;;
44476;SDS011;30180;44.788;10.366;2022-12-10T09:10:58;6.30;;;2.92;;
44476;SDS011;30180;44.788;10.366;2022-12-10T09:13:32;6.57;;;2.67;;
44476;SDS011;30180;44.788;10.366;2022-12-10T09:16:00;7.80;;;2.65;;
44476;SDS011;30180;44.788;10.366;2022-12-10T09:18:29;4.90;;;2.70;;
44476;SDS011;30180;44.788;10.366;2022-12-10T09:20:57;6.03;;;2.58;;
44476;SDS011;30180;44.788;10.366;2022-12-10T09:23:25;6.57;;;2.45;;
44476;SDS011;30180;44.788;10.366;2022-12-10T09:25:55;5.45;;;2.67;;
44476;SDS011;30180;44.788;10.366;2022-12-10T09:28:23;5.00;;;2.40;;
44476;SDS011;30180;44.788;10.366;2022-12-10T09:30:54;7.60;;;2.40;;
44476;SDS011;30180;44.788;10.366;2022-12-10T09:33:24;6.07;;;2.50;;
44476;SDS011;30180;44.788;10.366;2022-12-10T09:35:52;5.70;;;2.40;;
44476;SDS011;30180;44.788;10.366;2022-12-10T09:38:21;8.48;;;2.72;;
44476;SDS011;30180;44.788;10.366;2022-12-10T09:40:51;4.75;;;2.15;;
44476;SDS011;30180;44.788;10.366;2022-12-10T09:43:30;10.30;;;2.33;;
44476;SDS011;30180;44.788;10.366;2022-12-10T09:46:10;3.38;;;2.08;;
44476;SDS011;30180;44.788;10.366;2022-12-10T09:48:47;6.25;;;2.40;;
44476;SDS011;30180;44.788;10.366;2022-12-10T09:51:27;6.03;;;2.53;;
44476;SDS011;30180;44.788;10.366;2022-12-10T09:53:58;6.13;;;3.38;;
44476;SDS011;30180;44.788;10.366;2022-12-10T09:56:32;5.30;;;3.30;;
44476;SDS011;30180;44.788;10.366;2022-12-10T09:59:03;7.85;;;3.38;;
44476;SDS011;30180;44.788;10.366;2022-12-10T10:01:43;6.70;;;2.85;;
44476;SDS011;30180;44.788;10.366;2022-12-10T10:04:12;6.47;;;3.15;;
44476;SDS011;30180;44.788;10.366;2022-12-10T10:06:41;5.95;;;3.00;;
44476;SDS011;30180;44.788;10.366;2022-12-10T10:09:10;6.72;;;2.70;;
44476;SDS011;30180;44.788;10.366;2022-12-10T10:11:42;5.07;;;2.85;;
44476;SDS011;30180;44.788;10.366;2022-12-10T10:14:12;7.10;;;2.90;;
44476;SDS011;30180;44.788;10.366;2022-12-10T10:16:43;6.30;;;3.35;;
44476;SDS011;30180;44.788;10.366;2022-12-10T10:19:16;5.90;;;2.78;;
44476;SDS011;30180;44.788;10.366;2022-12-10T10:21:49;6.38;;;2.75;;
44476;SDS011;30180;44.788;10.366;2022-12-10T10:24:19;5.68;;;2.55;;
44476;SDS011;30180;44.788;10.366;2022-12-10T10:26:51;4.20;;;2.63;;
44476;SDS011;30180;44.788;10.366;2022-12-10T10:29:21;5.68;;;2.88;;
44476;SDS011;30180;44.788;10.366;2022-12-10T10:34:40;5.13;;;2.28;;
44476;SDS011;30180;44.788;10.366;2022-12-10T10:37:13;4.68;;;2.60;;
44476;SDS011;30180;44.788;10.366;2022-12-10T10:39:46;5.43;;;2.60;;
44476;SDS011;30180;44.788;10.366;2022-12-10T10:42:21;5.15;;;2.40;;
44476;SDS011;30180;44.788;10.366;2022-12-10T10:44:55;5.72;;;2.42;;
44476;SDS011;30180;44.788;10.366;2022-12-10T10:47:25;3.63;;;2.20;;
44476;SDS011;30180;44.788;10.366;2022-12-10T10:50:00;5.68;;;2.42;;
44476;SDS011;30180;44.788;10.366;2022-12-10T10:52:34;6.27;;;2.27;;
44476;SDS011;30180;44.788;10.366;2022-12-10T10:55:04;6.65;;;2.30;;
44476;SDS011;30180;44.788;10.366;2022-12-10T10:57:55;4.57;;;2.28;;
44476;SDS011;30180;44.788;10.366;2022-12-10T11:00:23;5.03;;;2.40;;
44476;SDS011;30180;44.788;10.366;2022-12-10T11:02:51;4.07;;;1.88;;
44476;SDS011;30180;44.788;10.366;2022-12-10T11:05:21;4.63;;;2.20;;
44476;SDS011;30180;44.788;10.366;2022-12-10T11:07:57;3.83;;;2.10;;
44476;SDS011;30180;44.788;10.366;2022-12-10T11:10:27;4.65;;;2.47;;
44476;SDS011;30180;44.788;10.366;2022-12-10T11:12:58;4.70;;;2.30;;
44476;SDS011;30180;44.788;10.366;2022-12-10T11:15:32;4.50;;;2.45;;
44476;SDS011;30180;44.788;10.366;2022-12-10T11:20:56;4.38;;;2.15;;
44476;SDS011;30180;44.788;10.366;2022-12-10T11:23:27;6.00;;;2.50;;
44476;SDS011;30180;44.788;10.366;2022-12-10T11:25:58;4.35;;;2.13;;
44476;SDS011;30180;44.788;10.366;2022-12-10T11:28:41;3.80;;;1.80;;
44476;SDS011;30180;44.788;10.366;2022-12-10T11:31:22;4.15;;;2.33;;
44476;SDS011;30180;44.788;10.366;2022-12-10T11:34:02;4.10;;;1.85;;
44476;SDS011;30180;44.788;10.366;2022-12-10T11:36:38;6.10;;;2.17;;
44476;SDS011;30180;44.788;10.366;2022-12-10T11:39:17;3.85;;;2.00;;
44476;SDS011;30180;44.788;10.366;2022-12-10T11:42:00;4.32;;;2.17;;
44476;SDS011;30180;44.788;10.366;2022-12-10T11:44:41;4.35;;;1.90;;
44476;SDS011;30180;44.788;10.366;2022-12-10T11:47:29;4.07;;;1.98;;
44476;SDS011;30180;44.788;10.366;2022-12-10T11:53:03;6.75;;;2.42;;
44476;SDS011;30180;44.788;10.366;2022-12-10T11:55:58;6.90;;;2.75;;
44476;SDS011;30180;44.788;10.366;2022-12-10T11:58:39;6.88;;;2.72;;
44476;SDS011;30180;44.788;10.366;2022-12-10T12:01:23;5.82;;;2.88;;
44476;SDS011;30180;44.788;10.366;2022-12-10T12:04:05;9.80;;;3.08;;
44476;SDS011;30180;44.788;10.366;2022-12-10T12:07:00;7.40;;;3.20;;
44476;SDS011;30180;44.788;10.366;2022-12-10T12:09:45;7.35;;;3.60;;
44476;SDS011;30180;44.788;10.366;2022-12-10T12:12:30;7.97;;;3.05;;
44476;SDS011;30180;44.788;10.366;2022-12-10T12:15:03;6.80;;;3.30;;
44476;SDS011;30180;44.788;10.366;2022-12-10T12:17:41;7.63;;;3.22;;
44476;SDS011;30180;44.788;10.366;2022-12-10T12:20:14;6.78;;;3.25;;
44476;SDS011;30180;44.788;10.366;2022-12-10T12:22:47;10.65;;;3.22;;
44476;SDS011;30180;44.788;10.366;2022-12-10T12:25:22;17.02;;;4.13;;
44476;SDS011;30180;44.788;10.366;2022-12-10T12:27:57;11.15;;;3.22;;
44476;SDS011;30180;44.788;10.366;2022-12-10T12:30:30;11.20;;;3.78;;
44476;SDS011;30180;44.788;10.366;2022-12-10T12:33:04;11.10;;;3.90;;
44476;SDS011;30180;44.788;10.366;2022-12-10T12:35:38;14.95;;;3.22;;
44476;SDS011;30180;44.788;10.366;2022-12-10T12:38:19;11.65;;;3.63;;
44476;SDS011;30180;44.788;10.366;2022-12-10T12:40:56;11.63;;;3.33;;
44476;SDS011;30180;44.788;10.366;2022-12-10T12:43:28;8.95;;;3.97;;
44476;SDS011;30180;44.788;10.366;2022-12-10T12:46:09;11.00;;;3.70;;
44476;SDS011;30180;44.788;10.366;2022-12-10T12:48:44;7.43;;;3.10;;
44476;SDS011;30180;44.788;10.366;2022-12-10T12:51:21;7.72;;;3.13;;
44476;SDS011;30180;44.788;10.366;2022-12-10T12:53:53;7.72;;;3.30;;
44476;SDS011;30180;44.788;10.366;2022-12-10T12:56:24;12.75;;;3.38;;
44476;SDS011;30180;44.788;10.366;2022-12-10T12:59:06;9.18;;;2.90;;
44476;SDS011;30180;44.788;10.366;2022-12-10T13:01:43;8.98;;;3.38;;
44476;SDS011;30180;44.788;10.366;2022-12-10T13:04:20;8.13;;;3.10;;
44476;SDS011;30180;44.788;10.366;2022-12-10T13:10:07;8.52;;;3.30;;
44476;SDS011;30180;44.788;10.366;2022-12-10T13:12:50;12.73;;;3.80;;
44476;SDS011;30180;44.788;10.366;2022-12-10T13:15:19;11.07;;;4.20;;
44476;SDS011;30180;44.788;10.366;2022-12-10T13:20:49;8.60;;;3.78;;
44476;SDS011;30180;44.788;10.366;2022-12-10T13:23:30;12.15;;;3.88;;
44476;SDS011;30180;44.788;10.366;2022-12-10T13:26:17;11.55;;;3.85;;
44476;SDS011;30180;44.788;10.366;2022-12-10T13:28:52;11.25;;;3.85;;
44476;SDS011;30180;44.788;10.366;2022-12-10T13:31:22;8.70;;;3.70;;
44476;SDS011;30180;44.788;10.366;2022-12-10T13:37:18;8.73;;;3.15;;
44476;SDS011;30180;44.788;10.366;2022-12-10T13:39:59;7.95;;;3.63;;
44476;SDS011;30180;44.788;10.366;2022-12-10T13:42:39;10.07;;;3.20;;
44476;SDS011;30180;44.788;10.366;2022-12-10T13:45:30;9.07;;;3.15;;
44476;SDS011;30180;44.788;10.366;2022-12-10T13:51:15;12.73;;;3.53;;
44476;SDS011;30180;44.788;10.366;2022-12-10T13:53:58;9.27;;;3.50;;
44476;SDS011;30180;44.788;10.366;2022-12-10T13:56:45;13.07;;;3.30;;
44476;SDS011;30180;44.788;10.366;2022-12-10T13:59:23;8.68;;;2.92;;
44476;SDS011;30180;44.788;10.366;2022-12-10T14:02:02;8.23;;;3.28;;
44476;SDS011;30180;44.788;10.366;2022-12-10T14:04:52;8.23;;;3.60;;
44476;SDS011;30180;44.788;10.366;2022-12-10T14:07:38;6.40;;;3.25;;
44476;SDS011;30180;44.788;10.366;2022-12-10T14:10:13;9.05;;;3.08;;
44476;SDS011;30180;44.788;10.366;2022-12-10T14:12:43;6.13;;;2.78;;
44476;SDS011;30180;44.788;10.366;2022-12-10T14:15:15;5.70;;;2.72;;
44476;SDS011;30180;44.788;10.366;2022-12-10T14:17:48;5.68;;;2.72;;
44476;SDS011;30180;44.788;10.366;2022-12-10T14:20:18;5.53;;;2.50;;
44476;SDS011;30180;44.788;10.366;2022-12-10T14:22:50;4.72;;;2.85;;
44476;SDS011;30180;44.788;10.366;2022-12-10T14:25:42;7.18;;;2.75;;
44476;SDS011;30180;44.788;10.366;2022-12-10T14:28:12;7.22;;;2.92;;
44476;SDS011;30180;44.788;10.366;2022-12-10T14:30:42;6.63;;;3.00;;
44476;SDS011;30180;44.788;10.366;2022-12-10T14:33:12;4.43;;;2.40;;
44476;SDS011;30180;44.788;10.366;2022-12-10T14:35:44;6.72;;;2.92;;
44476;SDS011;30180;44.788;10.366;2022-12-10T14:38:16;3.58;;;2.22;;
44476;SDS011;30180;44.788;10.366;2022-12-10T14:40:48;5.82;;;3.00;;
44476;SDS011;30180;44.788;10.366;2022-12-10T14:43:18;5.63;;;3.13;;
44476;SDS011;30180;44.788;10.366;2022-12-10T14:45:49;6.68;;;2.83;;
44476;SDS011;30180;44.788;10.366;2022-12-10T14:48:22;9.85;;;2.65;;
44476;SDS011;30180;44.788;10.366;2022-12-10T14:50:51;6.53;;;2.85;;
44476;SDS011;30180;44.788;10.366;2022-12-10T14:53:22;5.38;;;2.90;;
44476;SDS011;30180;44.788;10.366;2022-12-10T14:55:57;8.15;;;2.60;;
44476;SDS011;30180;44.788;10.366;2022-12-10T14:58:31;5.65;;;2.63;;
44476;SDS011;30180;44.788;10.366;2022-12-10T15:01:09;5.68;;;2.53;;
44476;SDS011;30180;44.788;10.366;2022-12-10T15:03:44;6.57;;;2.60;;
44476;SDS011;30180;44.788;10.366;2022-12-10T15:06:15;7.50;;;2.90;;
44476;SDS011;30180;44.788;10.366;2022-12-10T15:08:45;7.07;;;2.80;;
44476;SDS011;30180;44.788;10.366;2022-12-10T15:11:17;5.05;;;2.95;;
44476;SDS011;30180;44.788;10.366;2022-12-10T15:13:47;7.95;;;3.10;;
44476;SDS011;30180;44.788;10.366;2022-12-10T15:16:18;9.00;;;2.65;;
44476;SDS011;30180;44.788;10.366;2022-12-10T15:18:48;5.65;;;2.63;;
44476;SDS011;30180;44.788;10.366;2022-12-10T15:21:19;8.05;;;2.60;;
44476;SDS011;30180;44.788;10.366;2022-12-10T15:23:48;4.28;;;2.47;;
44476;SDS011;30180;44.788;10.366;2022-12-10T15:26:20;5.70;;;2.60;;
44476;SDS011;30180;44.788;10.366;2022-12-10T15:28:51;5.65;;;2.20;;